createdAt,value
2018-08-03T00:00:43.362Z,31.5
2018-08-03T00:01:44.975Z,31.5
2018-08-03T00:02:46.400Z,31.5
2018-08-03T00:03:47.802Z,31.5
2018-08-03T00:04:49.216Z,31.5
2018-08-03T00:05:50.574Z,31.6
2018-08-03T00:06:51.977Z,31.5
2018-08-03T00:07:53.376Z,31.5
2018-08-03T00:08:54.772Z,31.6
2018-08-03T00:09:56.174Z,31.6
2018-08-03T00:10:57.558Z,31.5
2018-08-03T00:11:58.950Z,31.6
2018-08-03T00:13:00.365Z,31.6
2018-08-03T00:14:01.749Z,31.5
2018-08-03T00:15:03.131Z,31.6
2018-08-03T00:16:04.525Z,31.5
2018-08-03T00:17:05.910Z,31.5
2018-08-03T00:18:07.309Z,31.6
2018-08-03T00:19:08.701Z,31.5
2018-08-03T00:20:10.089Z,31.5
2018-08-03T00:21:11.475Z,31.5
2018-08-03T00:22:12.875Z,31.5
2018-08-03T00:23:14.272Z,31.6
2018-08-03T00:24:15.670Z,31.5
2018-08-03T00:25:17.058Z,31.5
2018-08-03T00:26:18.453Z,31.5
2018-08-03T00:27:19.832Z,31.5
2018-08-03T00:28:21.227Z,31.5
2018-08-03T00:29:22.632Z,31.5
2018-08-03T00:30:24.034Z,31.6
2018-08-03T00:31:25.418Z,31.5
2018-08-03T00:32:26.796Z,31.5
2018-08-03T00:33:28.194Z,31.5
2018-08-03T00:34:29.596Z,31.6
2018-08-03T00:35:31.003Z,31.5
2018-08-03T00:36:32.383Z,31.5
2018-08-03T00:37:33.775Z,31.5
2018-08-03T00:38:35.159Z,31.6
2018-08-03T00:39:36.563Z,31.5
2018-08-03T00:40:37.962Z,31.5
2018-08-03T00:41:39.351Z,31.5
2018-08-03T00:42:40.749Z,31.5
2018-08-03T00:43:42.145Z,31.5
2018-08-03T00:44:43.529Z,31.5
2018-08-03T00:45:44.916Z,31.5
2018-08-03T00:46:46.306Z,31.6
2018-08-03T00:47:47.698Z,31.4
2018-08-03T00:48:49.082Z,31.5
2018-08-03T00:49:50.483Z,31.5
2018-08-03T00:50:51.893Z,31.5
2018-08-03T00:51:53.288Z,31.5
2018-08-03T00:52:54.688Z,31.5
2018-08-03T00:53:56.091Z,31.5
2018-08-03T00:54:57.495Z,31.5
2018-08-03T00:55:58.972Z,31.5
2018-08-03T00:57:00.374Z,31.5
2018-08-03T00:58:01.768Z,31.5
2018-08-03T00:59:03.164Z,31.5
2018-08-03T01:00:04.575Z,31.5
2018-08-03T01:01:05.949Z,31.5
2018-08-03T01:02:07.344Z,31.5
2018-08-03T01:03:08.737Z,31.5
2018-08-03T01:04:10.127Z,31.4
2018-08-03T01:05:11.517Z,31.5
2018-08-03T01:06:12.925Z,31.5
2018-08-03T01:07:14.313Z,31.5
2018-08-03T01:08:15.714Z,31.5
2018-08-03T01:09:17.097Z,31.4
2018-08-03T01:10:18.519Z,31.4
2018-08-03T01:11:19.881Z,31.4
2018-08-03T01:12:21.276Z,31.5
2018-08-03T01:13:22.690Z,31.4
2018-08-03T01:14:24.090Z,31.5
2018-08-03T01:15:25.490Z,31.5
2018-08-03T01:16:26.887Z,31.5
2018-08-03T01:17:28.276Z,31.4
2018-08-03T01:18:29.648Z,31.4
2018-08-03T01:19:31.047Z,31.4
2018-08-03T01:20:32.465Z,31.5
2018-08-03T01:21:33.861Z,31.5
2018-08-03T01:22:35.265Z,31.4
2018-08-03T01:23:36.647Z,31.5
2018-08-03T01:24:38.048Z,31.4
2018-08-03T01:25:39.465Z,31.3
2018-08-03T01:26:40.841Z,31.4
2018-08-03T01:27:42.239Z,31.3
2018-08-03T01:28:43.654Z,31.4
2018-08-03T01:29:45.124Z,31.4
2018-08-03T01:30:46.521Z,31.4
2018-08-03T01:31:47.905Z,31.4
2018-08-03T01:32:49.287Z,31.4
2018-08-03T01:33:50.672Z,31.3
2018-08-03T01:34:52.070Z,31.4
2018-08-03T01:35:53.455Z,31.4
2018-08-03T01:36:54.841Z,31.3
2018-08-03T01:37:56.279Z,31.4
2018-08-03T01:38:57.634Z,31.4
2018-08-03T01:39:59.032Z,31.4
2018-08-03T01:41:00.436Z,31.4
2018-08-03T01:42:01.831Z,31.4
2018-08-03T01:43:03.231Z,31.4
2018-08-03T01:44:04.628Z,31.4
2018-08-03T01:45:06.028Z,31.4
2018-08-03T01:46:07.410Z,31.5
2018-08-03T01:47:08.783Z,31.4
2018-08-03T01:48:10.175Z,31.4
2018-08-03T01:49:11.560Z,31.4
2018-08-03T01:50:12.971Z,31.3
2018-08-03T01:51:14.357Z,31.5
2018-08-03T01:52:15.742Z,31.4
2018-08-03T01:53:17.120Z,31.4
2018-08-03T01:54:18.493Z,31.3
2018-08-03T01:55:19.891Z,31.3
2018-08-03T01:56:21.273Z,31.3
2018-08-03T01:57:22.657Z,31.4
2018-08-03T01:58:24.066Z,31.5
2018-08-03T01:59:25.453Z,31.4
2018-08-03T02:00:26.829Z,31.3
2018-08-03T02:01:28.223Z,31.4
2018-08-03T02:02:29.620Z,31.4
2018-08-03T02:03:31.005Z,31.3
2018-08-03T02:04:32.385Z,31.3
2018-08-03T02:05:33.771Z,31.4
2018-08-03T02:06:35.161Z,31.3
2018-08-03T02:07:36.556Z,31.2
2018-08-03T02:08:38.009Z,31.3
2018-08-03T02:09:39.390Z,31.3
2018-08-03T02:10:40.801Z,31.3
2018-08-03T02:11:42.180Z,31.3
2018-08-03T02:12:43.586Z,31.3
2018-08-03T02:13:44.986Z,31.3
2018-08-03T02:14:46.390Z,31.3
2018-08-03T02:15:47.776Z,31.3
2018-08-03T02:16:49.151Z,31.3
2018-08-03T02:17:50.532Z,31.2
2018-08-03T02:18:51.919Z,31.3
2018-08-03T02:19:53.300Z,31.2
2018-08-03T02:20:54.691Z,31.3
2018-08-03T02:21:56.069Z,31.2
2018-08-03T02:22:57.456Z,31.3
2018-08-03T02:23:58.879Z,31.3
2018-08-03T02:25:00.302Z,31.2
2018-08-03T02:26:01.709Z,31.3
2018-08-03T02:27:03.097Z,31.3
2018-08-03T02:28:04.493Z,31.3
2018-08-03T02:29:05.897Z,31.3
2018-08-03T02:30:07.302Z,31.3
2018-08-03T02:31:08.747Z,31.3
2018-08-03T02:32:10.126Z,31.3
2018-08-03T02:33:11.522Z,31.3
2018-08-03T02:34:12.960Z,31.2
2018-08-03T02:35:14.343Z,31.3
2018-08-03T02:36:15.752Z,31.2
2018-08-03T02:37:17.157Z,31.2
2018-08-03T02:38:18.557Z,31.3
2018-08-03T02:39:19.945Z,31.3
2018-08-03T02:40:21.330Z,31.3
2018-08-03T02:41:22.729Z,31.3
2018-08-03T02:42:24.103Z,31.2
2018-08-03T02:43:25.496Z,31.3
2018-08-03T02:44:26.884Z,31.3
2018-08-03T02:45:28.276Z,31.2
2018-08-03T02:46:29.677Z,31.2
2018-08-03T02:47:31.071Z,31.3
2018-08-03T02:48:32.469Z,31.3
2018-08-03T02:49:33.873Z,31.3
2018-08-03T02:50:35.252Z,31.3
2018-08-03T02:51:36.656Z,31.3
2018-08-03T02:52:38.033Z,31.2
2018-08-03T02:53:39.441Z,31.2
2018-08-03T02:54:40.824Z,31.2
2018-08-03T02:55:42.239Z,31.3
2018-08-03T02:56:43.634Z,31.2
2018-08-03T02:57:45.094Z,31.3
2018-08-03T02:58:46.501Z,31.3
2018-08-03T02:59:47.881Z,31.2
2018-08-03T03:00:49.276Z,31.2
2018-08-03T03:01:50.645Z,31.3
2018-08-03T03:02:52.035Z,31.2
2018-08-03T03:03:53.431Z,31.2
2018-08-03T03:04:54.817Z,31.3
2018-08-03T03:05:56.240Z,31.2
2018-08-03T03:06:57.640Z,31.2
2018-08-03T03:07:59.028Z,31.2
2018-08-03T03:09:00.418Z,31.2
2018-08-03T03:10:01.806Z,31.2
2018-08-03T03:11:03.185Z,31.2
2018-08-03T03:12:04.614Z,31.2
2018-08-03T03:13:06.006Z,31.2
2018-08-03T03:14:07.437Z,31.2
2018-08-03T03:15:08.829Z,31.2
2018-08-03T03:16:10.218Z,31.2
2018-08-03T03:17:11.597Z,31.2
2018-08-03T03:18:12.983Z,31.1
2018-08-03T03:19:14.389Z,31.2
2018-08-03T03:20:15.785Z,31.2
2018-08-03T03:21:17.183Z,31.2
2018-08-03T03:22:18.617Z,31.2
2018-08-03T03:23:20.010Z,31.2
2018-08-03T03:24:21.412Z,31.2
2018-08-03T03:25:22.807Z,31.2
2018-08-03T03:26:24.218Z,31.2
2018-08-03T03:27:25.607Z,31.2
2018-08-03T03:28:26.984Z,31.2
2018-08-03T03:29:28.391Z,31.2
2018-08-03T03:30:29.796Z,31.2
2018-08-03T03:31:31.191Z,31.2
2018-08-03T03:32:32.673Z,31.2
2018-08-03T03:33:34.047Z,31.2
2018-08-03T03:34:35.398Z,31.1
2018-08-03T03:35:36.785Z,31.2
2018-08-03T03:36:38.179Z,31.2
2018-08-03T03:37:39.579Z,31.2
2018-08-03T03:38:40.980Z,31.2
2018-08-03T03:39:42.385Z,31.2
2018-08-03T03:40:43.765Z,31.2
2018-08-03T03:41:45.185Z,31.1
2018-08-03T03:42:46.582Z,31.2
2018-08-03T03:43:47.963Z,31.1
2018-08-03T03:44:49.341Z,31.1
2018-08-03T03:45:50.744Z,31.2
2018-08-03T03:46:52.128Z,31.1
2018-08-03T03:47:53.525Z,31.2
2018-08-03T03:48:54.922Z,31.1
2018-08-03T03:49:56.314Z,31.2
2018-08-03T03:50:57.800Z,31.1
2018-08-03T03:51:59.140Z,31.1
2018-08-03T03:53:00.534Z,31.2
2018-08-03T03:54:01.917Z,31.0
2018-08-03T03:55:03.308Z,31.2
2018-08-03T03:56:04.724Z,31.1
2018-08-03T03:57:06.093Z,31.2
2018-08-03T03:58:07.488Z,31.1
2018-08-03T03:59:08.903Z,31.1
2018-08-03T04:00:10.263Z,31.0
2018-08-03T04:01:11.650Z,31.2
2018-08-03T04:02:13.024Z,31.1
2018-08-03T04:03:14.417Z,31.0
2018-08-03T04:04:15.815Z,31.1
2018-08-03T04:05:17.203Z,31.0
2018-08-03T04:06:18.598Z,31.1
2018-08-03T04:07:19.995Z,31.2
2018-08-03T04:08:21.397Z,31.1
2018-08-03T04:09:22.781Z,31.2
2018-08-03T04:10:24.195Z,31.2
2018-08-03T04:11:25.586Z,31.1
2018-08-03T04:12:27.033Z,31.0
2018-08-03T04:13:28.366Z,31.1
2018-08-03T04:14:29.737Z,31.0
2018-08-03T04:15:31.119Z,31.2
2018-08-03T04:16:32.493Z,31.1
2018-08-03T04:17:33.892Z,31.1
2018-08-03T04:18:35.287Z,31.0
2018-08-03T04:19:36.670Z,31.1
2018-08-03T04:20:38.069Z,31.0
2018-08-03T04:21:39.468Z,31.1
2018-08-03T04:22:40.865Z,31.1
2018-08-03T04:23:42.258Z,31.1
2018-08-03T04:24:43.657Z,31.1
2018-08-03T04:25:45.055Z,31.1
2018-08-03T04:26:46.443Z,31.1
2018-08-03T04:27:47.835Z,31.1
2018-08-03T04:28:49.225Z,31.1
2018-08-03T04:29:50.593Z,31.2
2018-08-03T04:30:51.984Z,31.0
2018-08-03T04:31:53.369Z,31.1
2018-08-03T04:32:54.770Z,31.1
2018-08-03T04:33:56.179Z,31.1
2018-08-03T04:34:57.566Z,31.1
2018-08-03T04:35:58.964Z,31.0
2018-08-03T04:37:00.346Z,31.1
2018-08-03T04:38:01.743Z,31.1
2018-08-03T04:39:03.191Z,31.1
2018-08-03T04:40:04.540Z,31.1
2018-08-03T04:41:05.917Z,31.2
2018-08-03T04:42:07.334Z,31.0
2018-08-03T04:43:08.724Z,31.1
2018-08-03T04:44:10.108Z,31.1
2018-08-03T04:45:11.527Z,31.1
2018-08-03T04:46:12.945Z,31.2
2018-08-03T04:47:14.332Z,31.1
2018-08-03T04:48:15.744Z,31.1
2018-08-03T04:49:17.127Z,31.1
2018-08-03T04:50:18.514Z,31.0
2018-08-03T04:51:19.910Z,31.2
2018-08-03T04:52:21.319Z,31.0
2018-08-03T04:53:22.713Z,31.0
2018-08-03T04:54:24.115Z,31.1
2018-08-03T04:55:25.519Z,31.1
2018-08-03T04:56:26.902Z,31.1
2018-08-03T04:57:28.306Z,31.1
2018-08-03T04:58:29.700Z,31.2
2018-08-03T04:59:31.080Z,31.0
2018-08-03T05:00:32.477Z,31.2
2018-08-03T05:01:33.869Z,31.2
2018-08-03T05:02:35.255Z,31.0
2018-08-03T05:03:36.711Z,31.1
2018-08-03T05:04:38.203Z,31.1
2018-08-03T05:05:39.490Z,31.1
2018-08-03T05:06:40.884Z,31.0
2018-08-03T05:07:42.266Z,31.1
2018-08-03T05:08:43.661Z,31.2
2018-08-03T05:09:45.074Z,31.1
2018-08-03T05:10:46.497Z,31.1
2018-08-03T05:11:47.890Z,31.2
2018-08-03T05:12:49.282Z,31.2
2018-08-03T05:13:50.657Z,31.2
2018-08-03T05:14:52.057Z,31.1
2018-08-03T05:15:53.459Z,31.1
2018-08-03T05:16:54.845Z,31.1
2018-08-03T05:17:56.245Z,31.1
2018-08-03T05:18:57.633Z,31.2
2018-08-03T05:19:59.023Z,31.1
2018-08-03T05:21:00.441Z,31.2
2018-08-03T05:22:01.817Z,31.1
2018-08-03T05:23:03.231Z,31.2
2018-08-03T05:24:04.617Z,31.1
2018-08-03T05:25:06.013Z,31.2
2018-08-03T05:26:07.422Z,31.2
2018-08-03T05:27:08.829Z,31.2
2018-08-03T05:28:10.231Z,31.1
2018-08-03T05:29:11.642Z,31.2
2018-08-03T05:30:13.102Z,31.2
2018-08-03T05:31:14.458Z,31.2
2018-08-03T05:32:15.865Z,31.2
2018-08-03T05:33:17.267Z,31.2
2018-08-03T05:34:18.693Z,31.2
2018-08-03T05:35:20.168Z,31.2
2018-08-03T05:36:21.555Z,31.2
2018-08-03T05:37:22.910Z,31.1
2018-08-03T05:38:24.331Z,31.2
2018-08-03T05:39:25.728Z,31.2
2018-08-03T05:40:27.129Z,31.2
2018-08-03T05:41:28.519Z,31.2
2018-08-03T05:42:29.934Z,31.2
2018-08-03T05:43:31.315Z,31.1
2018-08-03T05:44:32.711Z,31.2
2018-08-03T05:45:34.207Z,31.2
2018-08-03T05:46:35.579Z,31.2
2018-08-03T05:47:36.959Z,31.2
2018-08-03T05:48:38.339Z,31.2
2018-08-03T05:49:39.721Z,31.2
2018-08-03T05:50:41.117Z,31.2
2018-08-03T05:51:42.515Z,31.2
2018-08-03T05:52:43.961Z,31.2
2018-08-03T05:53:45.351Z,31.2
2018-08-03T05:54:46.738Z,31.2
2018-08-03T05:55:48.117Z,31.2
2018-08-03T05:56:49.494Z,31.2
2018-08-03T05:57:50.930Z,31.2
2018-08-03T05:58:52.268Z,31.2
2018-08-03T05:59:53.675Z,31.2
2018-08-03T06:00:55.067Z,31.2
2018-08-03T06:01:56.457Z,31.2
2018-08-03T06:02:57.846Z,31.2
2018-08-03T06:03:59.293Z,31.2
2018-08-03T06:05:00.644Z,31.2
2018-08-03T06:06:02.048Z,31.3
2018-08-03T06:07:03.468Z,31.3
2018-08-03T06:08:04.909Z,31.3
2018-08-03T06:09:06.267Z,31.3
2018-08-03T06:10:07.649Z,31.3
2018-08-03T06:11:09.064Z,31.3
2018-08-03T06:12:10.486Z,31.2
2018-08-03T06:13:11.905Z,31.3
2018-08-03T06:14:13.299Z,31.2
2018-08-03T06:15:14.691Z,31.3
2018-08-03T06:16:16.078Z,31.3
2018-08-03T06:17:17.498Z,31.3
2018-08-03T06:18:18.874Z,31.2
2018-08-03T06:19:20.268Z,31.2
2018-08-03T06:20:21.700Z,31.3
2018-08-03T06:21:23.096Z,31.3
2018-08-03T06:22:24.500Z,31.3
2018-08-03T06:23:25.897Z,31.2
2018-08-03T06:24:27.322Z,31.3
2018-08-03T06:25:28.741Z,31.3
2018-08-03T06:26:30.124Z,31.2
2018-08-03T06:27:31.536Z,31.3
2018-08-03T06:28:32.986Z,31.3
2018-08-03T06:29:34.314Z,31.3
2018-08-03T06:30:35.697Z,31.2
2018-08-03T06:31:37.101Z,31.3
2018-08-03T06:32:38.466Z,31.3
2018-08-03T06:33:39.872Z,31.3
2018-08-03T06:34:41.259Z,31.3
2018-08-03T06:35:42.670Z,31.3
2018-08-03T06:36:44.068Z,31.2
2018-08-03T06:37:45.461Z,31.2
2018-08-03T06:38:46.932Z,31.2
2018-08-03T06:39:48.376Z,31.2
2018-08-03T06:40:49.767Z,31.2
2018-08-03T06:41:51.162Z,31.3
2018-08-03T06:42:52.564Z,31.4
2018-08-03T06:43:53.959Z,31.4
2018-08-03T06:44:55.351Z,31.4
2018-08-03T06:45:56.741Z,31.5
2018-08-03T06:46:58.158Z,31.5
2018-08-03T06:47:59.549Z,31.6
2018-08-03T06:49:01.027Z,31.7
2018-08-03T06:50:02.424Z,31.7
2018-08-03T06:51:03.825Z,31.7
2018-08-03T06:52:05.296Z,31.7
2018-08-03T06:53:06.695Z,31.7
2018-08-03T06:54:08.087Z,31.8
2018-08-03T06:55:09.470Z,31.8
2018-08-03T06:56:10.852Z,31.8
2018-08-03T06:57:12.230Z,31.8
2018-08-03T06:58:13.639Z,31.9
2018-08-03T06:59:15.062Z,31.8
2018-08-03T07:00:16.474Z,31.8
2018-08-03T07:01:17.893Z,31.8
2018-08-03T07:02:19.331Z,32.0
2018-08-03T07:03:20.723Z,31.8
2018-08-03T07:04:22.275Z,32.0
2018-08-03T07:05:23.918Z,32.0
2018-08-03T07:06:25.496Z,32.0
2018-08-03T07:07:27.633Z,32.0
2018-08-03T07:08:29.033Z,31.9
2018-08-03T07:09:30.411Z,32.0
2018-08-03T07:10:31.797Z,32.0
2018-08-03T07:11:33.212Z,32.1
2018-08-03T07:12:34.613Z,32.1
2018-08-03T07:13:36.002Z,32.1
2018-08-03T07:14:37.393Z,32.1
2018-08-03T07:15:39.024Z,32.0
2018-08-03T07:16:40.411Z,32.0
2018-08-03T07:17:41.793Z,32.1
2018-08-03T07:18:43.208Z,32.2
2018-08-03T07:19:44.842Z,32.1
2018-08-03T07:20:46.327Z,32.2
2018-08-03T07:21:47.622Z,32.1
2018-08-03T07:22:49.015Z,32.2
2018-08-03T07:23:50.386Z,32.2
2018-08-03T07:24:51.771Z,32.2
2018-08-03T07:25:53.163Z,32.2
2018-08-03T07:26:54.531Z,32.2
2018-08-03T07:27:55.922Z,32.3
2018-08-03T07:28:57.308Z,32.2
2018-08-03T07:29:58.696Z,32.4
2018-08-03T07:31:00.256Z,32.4
2018-08-03T07:32:01.670Z,32.3
2018-08-03T07:33:03.052Z,32.4
2018-08-03T07:34:04.429Z,32.4
2018-08-03T07:35:05.819Z,32.4
2018-08-03T07:36:07.252Z,32.4
2018-08-03T07:37:08.600Z,32.4
2018-08-03T07:38:09.988Z,32.3
2018-08-03T07:39:11.388Z,32.2
2018-08-03T07:40:12.790Z,32.3
2018-08-03T07:41:14.179Z,32.3
2018-08-03T07:42:15.585Z,32.3
2018-08-03T07:43:17.090Z,32.2
2018-08-03T07:44:18.416Z,32.2
2018-08-03T07:45:19.785Z,32.2
2018-08-03T07:46:21.182Z,32.2
2018-08-03T07:47:22.595Z,32.2
2018-08-03T07:48:23.976Z,32.2
2018-08-03T07:49:25.367Z,32.2
2018-08-03T07:50:26.760Z,32.2
2018-08-03T07:51:28.153Z,32.2
2018-08-03T07:52:29.546Z,32.2
2018-08-03T07:53:30.916Z,32.2
2018-08-03T07:54:32.310Z,32.2
2018-08-03T07:55:33.704Z,32.2
2018-08-03T07:56:35.119Z,32.3
2018-08-03T07:57:36.509Z,32.2
2018-08-03T07:58:37.890Z,32.3
2018-08-03T07:59:39.271Z,32.3
2018-08-03T08:00:40.700Z,32.2
2018-08-03T08:01:42.229Z,32.2
2018-08-03T08:02:43.734Z,32.4
2018-08-03T08:03:45.141Z,32.4
2018-08-03T08:04:46.545Z,32.3
2018-08-03T08:05:47.939Z,32.3
2018-08-03T08:06:49.470Z,32.3
2018-08-03T08:07:50.852Z,32.3
2018-08-03T08:08:52.242Z,32.4
2018-08-03T08:09:53.630Z,32.4
2018-08-03T08:10:55.023Z,32.4
2018-08-03T08:11:56.441Z,32.4
2018-08-03T08:12:57.830Z,32.4
2018-08-03T08:13:59.238Z,32.3
2018-08-03T08:15:00.634Z,32.4
2018-08-03T08:16:02.044Z,32.4
2018-08-03T08:17:03.669Z,32.4
2018-08-03T08:18:04.955Z,32.4
2018-08-03T08:19:06.367Z,32.4
2018-08-03T08:20:07.757Z,32.4
2018-08-03T08:21:09.158Z,32.4
2018-08-03T08:22:10.587Z,32.5
2018-08-03T08:23:11.978Z,32.6
2018-08-03T08:24:13.362Z,32.5
2018-08-03T08:25:14.774Z,32.5
2018-08-03T08:26:16.291Z,32.6
2018-08-03T08:27:17.582Z,32.7
2018-08-03T08:28:18.995Z,32.7
2018-08-03T08:29:20.390Z,32.6
2018-08-03T08:30:21.779Z,32.6
2018-08-03T08:31:23.201Z,32.6
2018-08-03T08:32:24.628Z,32.6
2018-08-03T08:33:26.023Z,32.7
2018-08-03T08:34:27.467Z,32.6
2018-08-03T08:35:28.843Z,32.6
2018-08-03T08:36:30.230Z,32.6
2018-08-03T08:37:31.618Z,32.7
2018-08-03T08:38:33.042Z,32.7
2018-08-03T08:39:34.434Z,32.7
2018-08-03T08:40:36.152Z,32.7
2018-08-03T08:41:37.579Z,32.8
2018-08-03T08:42:38.993Z,32.7
2018-08-03T08:43:40.404Z,32.8
2018-08-03T08:44:41.717Z,32.9
2018-08-03T08:45:43.144Z,32.8
2018-08-03T08:46:44.561Z,32.9
2018-08-03T08:47:45.970Z,32.9
2018-08-03T08:48:47.352Z,32.9
2018-08-03T08:49:48.978Z,32.9
2018-08-03T08:50:50.349Z,32.9
2018-08-03T08:51:51.757Z,32.9
2018-08-03T08:52:53.134Z,32.9
2018-08-03T08:53:54.566Z,32.9
2018-08-03T08:54:56.097Z,33.0
2018-08-03T08:55:57.391Z,33.0
2018-08-03T08:56:58.800Z,32.9
2018-08-03T08:58:00.192Z,33.0
2018-08-03T08:59:01.584Z,33.0
2018-08-03T09:00:02.971Z,33.0
2018-08-03T09:01:04.391Z,33.0
2018-08-03T09:02:05.775Z,33.1
2018-08-03T09:03:07.176Z,33.1
2018-08-03T09:04:08.608Z,33.1
2018-08-03T09:05:10.192Z,33.1
2018-08-03T09:06:11.631Z,33.1
2018-08-03T09:07:13.069Z,33.1
2018-08-03T09:08:14.513Z,33.2
2018-08-03T09:09:16.007Z,33.1
2018-08-03T09:10:17.394Z,33.2
2018-08-03T09:11:18.886Z,33.2
2018-08-03T09:12:20.303Z,33.1
2018-08-03T09:13:21.753Z,33.2
2018-08-03T09:14:23.143Z,33.1
2018-08-03T09:15:24.569Z,33.1
2018-08-03T09:16:26.005Z,33.1
2018-08-03T09:17:27.427Z,33.1
2018-08-03T09:18:28.880Z,33.2
2018-08-03T09:19:30.215Z,33.1
2018-08-03T09:20:31.602Z,33.1
2018-08-03T09:21:32.984Z,33.2
2018-08-03T09:22:34.370Z,33.1
2018-08-03T09:23:35.750Z,33.2
2018-08-03T09:24:37.258Z,33.2
2018-08-03T09:25:38.638Z,33.2
2018-08-03T09:26:40.462Z,33.3
2018-08-03T09:27:41.809Z,33.3
2018-08-03T09:28:43.239Z,33.3
2018-08-03T09:29:44.702Z,33.3
2018-08-03T09:30:46.099Z,33.3
2018-08-03T09:31:47.518Z,33.3
2018-08-03T09:32:48.939Z,33.2
2018-08-03T09:33:50.619Z,33.2
2018-08-03T09:34:51.862Z,33.3
2018-08-03T09:35:53.274Z,33.4
2018-08-03T09:36:54.697Z,33.3
2018-08-03T09:37:56.154Z,33.3
2018-08-03T09:38:57.554Z,33.3
2018-08-03T09:39:59.029Z,33.3
2018-08-03T09:41:00.513Z,33.3
2018-08-03T09:42:01.905Z,33.3
2018-08-03T09:43:03.494Z,33.4
2018-08-03T09:44:04.776Z,33.4
2018-08-03T09:45:06.167Z,33.4
2018-08-03T09:46:07.638Z,33.4
2018-08-03T09:47:09.157Z,33.4
2018-08-03T09:48:10.562Z,33.4
2018-08-03T09:49:12.001Z,33.5
2018-08-03T09:50:13.368Z,33.5
2018-08-03T09:51:14.775Z,33.4
2018-08-03T09:52:16.287Z,33.4
2018-08-03T09:53:17.646Z,33.4
2018-08-03T09:54:19.052Z,33.5
2018-08-03T09:55:20.614Z,33.5
2018-08-03T09:56:22.041Z,33.5
2018-08-03T09:57:23.442Z,33.5
2018-08-03T09:58:24.899Z,33.5
2018-08-03T09:59:26.308Z,33.5
2018-08-03T10:00:27.718Z,33.5
2018-08-03T10:01:29.185Z,33.5
2018-08-03T10:02:30.593Z,33.5
2018-08-03T10:03:32.027Z,33.6
2018-08-03T10:04:33.467Z,33.6
2018-08-03T10:05:34.872Z,33.5
2018-08-03T10:06:36.266Z,33.6
2018-08-03T10:07:37.658Z,33.5
2018-08-03T10:08:39.072Z,33.6
2018-08-03T10:09:40.470Z,33.7
2018-08-03T10:10:41.887Z,33.6
2018-08-03T10:11:43.326Z,33.6
2018-08-03T10:12:44.734Z,33.6
2018-08-03T10:13:46.122Z,33.7
2018-08-03T10:14:47.512Z,33.6
2018-08-03T10:15:48.907Z,33.7
2018-08-03T10:16:50.343Z,33.6
2018-08-03T10:17:51.707Z,33.6
2018-08-03T10:18:53.136Z,33.7
2018-08-03T10:19:54.515Z,33.6
2018-08-03T10:20:55.946Z,33.7
2018-08-03T10:21:57.343Z,33.6
2018-08-03T10:22:58.765Z,33.7
2018-08-03T10:24:00.183Z,33.7
2018-08-03T10:25:01.638Z,33.7
2018-08-03T10:26:03.012Z,33.8
2018-08-03T10:27:04.409Z,33.8
2018-08-03T10:28:05.812Z,33.7
2018-08-03T10:29:07.235Z,33.8
2018-08-03T10:30:08.657Z,33.8
2018-08-03T10:31:10.075Z,33.8
2018-08-03T10:32:11.516Z,33.7
2018-08-03T10:33:12.943Z,33.8
2018-08-03T10:34:14.354Z,33.7
2018-08-03T10:35:15.831Z,33.8
2018-08-03T10:36:17.240Z,33.8
2018-08-03T10:37:18.639Z,33.8
2018-08-03T10:38:20.117Z,33.8
2018-08-03T10:39:21.487Z,33.7
2018-08-03T10:40:22.865Z,33.7
2018-08-03T10:41:24.285Z,33.7
2018-08-03T10:42:25.686Z,33.6
2018-08-03T10:43:27.059Z,33.6
2018-08-03T10:44:28.461Z,33.7
2018-08-03T10:45:30.019Z,33.7
2018-08-03T10:46:31.439Z,33.5
2018-08-03T10:47:32.857Z,33.6
2018-08-03T10:48:34.304Z,33.6
2018-08-03T10:49:35.679Z,33.5
2018-08-03T10:50:37.106Z,33.5
2018-08-03T10:51:38.586Z,33.5
2018-08-03T10:52:40.013Z,33.5
2018-08-03T10:53:41.410Z,33.5
2018-08-03T10:54:42.880Z,33.5
2018-08-03T10:55:44.290Z,33.5
2018-08-03T10:56:45.684Z,33.5
2018-08-03T10:57:47.157Z,33.5
2018-08-03T10:58:48.588Z,33.5
2018-08-03T10:59:50.010Z,33.4
2018-08-03T11:00:51.429Z,33.5
2018-08-03T11:01:52.876Z,33.5
2018-08-03T11:02:54.246Z,33.4
2018-08-03T11:03:55.755Z,33.5
2018-08-03T11:04:57.061Z,33.4
2018-08-03T11:05:58.450Z,33.5
2018-08-03T11:06:59.836Z,33.5
2018-08-03T11:08:01.317Z,33.6
2018-08-03T11:09:02.711Z,33.6
2018-08-03T11:10:04.159Z,33.7
2018-08-03T11:11:05.559Z,33.6
2018-08-03T11:12:06.941Z,33.7
2018-08-03T11:13:08.378Z,33.7
2018-08-03T11:14:09.780Z,33.7
2018-08-03T11:15:11.192Z,33.8
2018-08-03T11:16:12.590Z,33.7
2018-08-03T11:17:14.025Z,33.8
2018-08-03T11:18:15.433Z,33.8
2018-08-03T11:19:16.870Z,33.9
2018-08-03T11:20:18.249Z,33.9
2018-08-03T11:21:19.623Z,33.9
2018-08-03T11:22:21.009Z,33.8
2018-08-03T11:23:22.389Z,33.9
2018-08-03T11:24:23.796Z,33.8
2018-08-03T11:25:25.190Z,33.9
2018-08-03T11:26:26.584Z,33.9
2018-08-03T11:27:27.996Z,34.0
2018-08-03T11:28:29.392Z,33.9
2018-08-03T11:29:30.804Z,33.9
2018-08-03T11:30:32.196Z,33.9
2018-08-03T11:31:33.603Z,34.0
2018-08-03T11:32:34.994Z,33.9
2018-08-03T11:33:36.395Z,33.9
2018-08-03T11:34:37.812Z,34.0
2018-08-03T11:35:39.242Z,33.9
2018-08-03T11:36:40.648Z,34.0
2018-08-03T11:37:42.044Z,34.0
2018-08-03T11:38:43.557Z,34.0
2018-08-03T11:39:45.038Z,34.0
2018-08-03T11:40:46.556Z,34.0
2018-08-03T11:41:47.943Z,34.0
2018-08-03T11:42:49.334Z,34.0
2018-08-03T11:43:50.777Z,34.1
2018-08-03T11:44:52.181Z,34.1
2018-08-03T11:45:53.750Z,34.1
2018-08-03T11:46:55.157Z,34.1
2018-08-03T11:47:56.579Z,34.1
2018-08-03T11:48:58.008Z,34.2
2018-08-03T11:49:59.432Z,34.2
2018-08-03T11:51:00.885Z,34.1
2018-08-03T11:52:37.223Z,33.0
2018-08-03T11:53:38.803Z,31.8
2018-08-03T11:54:40.570Z,31.5
2018-08-03T11:55:41.975Z,31.2
2018-08-03T11:56:43.388Z,31.2
2018-08-03T11:57:44.846Z,31.1
2018-08-03T11:58:46.326Z,31.2
2018-08-03T11:59:47.856Z,31.0
2018-08-03T12:00:49.278Z,31.1
2018-08-03T12:01:50.862Z,31.1
2018-08-03T12:02:52.318Z,31.1
2018-08-03T12:03:53.817Z,31.0
2018-08-03T12:04:55.336Z,31.1
2018-08-03T12:05:56.895Z,31.2
2018-08-03T12:06:59.666Z,31.1
2018-08-03T12:08:01.094Z,31.1
2018-08-03T12:09:02.658Z,31.0
2018-08-03T12:10:04.235Z,31.1
2018-08-03T12:11:05.821Z,31.1
2018-08-03T12:12:07.366Z,31.1
2018-08-03T12:13:08.751Z,31.1
2018-08-03T12:14:10.263Z,31.1
2018-08-03T12:15:11.938Z,31.1
2018-08-03T12:16:13.341Z,31.1
2018-08-03T12:17:14.767Z,31.1
2018-08-03T12:18:16.165Z,31.0
2018-08-03T12:19:17.686Z,30.9
2018-08-03T12:20:19.462Z,31.0
2018-08-03T12:21:21.082Z,31.0
2018-08-03T12:22:22.473Z,31.0
2018-08-03T12:23:24.027Z,31.0
2018-08-03T12:24:25.718Z,31.0
2018-08-03T12:25:27.234Z,30.9
2018-08-03T12:26:28.637Z,30.9
2018-08-03T12:27:30.128Z,30.9
2018-08-03T12:28:31.622Z,30.9
2018-08-03T12:29:33.053Z,31.0
2018-08-03T12:30:34.460Z,31.0
2018-08-03T12:31:36.050Z,31.0
2018-08-03T12:32:37.643Z,31.0
2018-08-03T12:33:39.497Z,31.0
2018-08-03T12:34:40.945Z,30.9
2018-08-03T12:35:42.624Z,30.9
2018-08-03T12:36:44.198Z,30.9
2018-08-03T12:37:45.592Z,30.9
2018-08-03T12:38:47.112Z,30.9
2018-08-03T12:39:48.459Z,30.9
2018-08-03T12:40:49.911Z,30.9
2018-08-03T12:41:51.823Z,31.0
2018-08-03T12:42:53.298Z,31.0
2018-08-03T12:43:54.743Z,31.0
2018-08-03T12:44:56.158Z,31.1
2018-08-03T12:45:57.598Z,31.1
2018-08-03T12:46:59.464Z,31.0
2018-08-03T12:48:00.874Z,30.9
2018-08-03T12:49:02.464Z,31.0
2018-08-03T12:50:03.906Z,31.0
2018-08-03T12:51:05.978Z,30.9
2018-08-03T12:52:07.425Z,30.9
2018-08-03T12:53:09.690Z,31.0
2018-08-03T12:54:11.319Z,31.0
2018-08-03T12:55:12.710Z,31.0
2018-08-03T12:57:16.264Z,31.0
2018-08-03T12:58:17.877Z,30.9
2018-08-03T12:59:19.274Z,31.0
2018-08-03T13:00:20.835Z,31.0
2018-08-03T13:01:22.262Z,30.9
2018-08-03T13:02:23.811Z,30.9
2018-08-03T13:04:04.684Z,31.0
2018-08-03T13:05:06.089Z,31.0
2018-08-03T13:06:28.592Z,31.0
2018-08-03T13:07:30.049Z,30.9
2018-08-03T13:08:51.531Z,30.9
2018-08-03T13:09:52.932Z,30.9
2018-08-03T13:11:15.006Z,31.0
2018-08-03T13:12:16.406Z,31.0
2018-08-03T13:13:17.870Z,30.9
2018-08-03T13:14:19.332Z,31.0
2018-08-03T13:15:20.726Z,31.0
2018-08-03T13:16:22.173Z,31.0
2018-08-03T13:17:23.537Z,30.9
2018-08-03T13:18:24.965Z,30.9
2018-08-03T13:19:26.358Z,30.9
2018-08-03T13:20:27.816Z,30.9
2018-08-03T13:21:29.181Z,30.9
2018-08-03T13:22:30.604Z,31.0
2018-08-03T13:23:32.034Z,31.0
2018-08-03T13:24:33.446Z,30.9
2018-08-03T13:25:34.852Z,30.9
2018-08-03T13:26:36.273Z,31.0
2018-08-03T13:27:37.664Z,30.9
2018-08-03T13:28:39.054Z,31.0
2018-08-03T13:29:40.481Z,31.0
2018-08-03T13:30:41.892Z,31.0
2018-08-03T13:31:43.293Z,30.9
2018-08-03T13:32:44.742Z,31.0
2018-08-03T13:33:46.129Z,31.0
2018-08-03T13:34:47.578Z,31.0
2018-08-03T13:35:48.993Z,31.0
2018-08-03T13:36:50.571Z,30.9
2018-08-03T13:37:52.010Z,30.9
2018-08-03T13:38:53.893Z,31.0
2018-08-03T13:39:56.003Z,31.0
2018-08-03T13:40:57.385Z,30.9